CheckWX is a tool to help pilots better visualize weather data.  It is not intended as a substitute for an official pre-flight weather briefing.

21:07:04 UTC

O69 METAR
Petaluma Municipal Airport
Petaluma, California, USA
Current

32 mins ago

KO69 232035Z AUTO VRB03KT 10SM OVC110 11/06 A3032 RMK A01
Observed
Feb-23 @ 20:35 UTC
Wind
  • Variable at 3 KTS
Visibility
10 SM
Flight Rules
VFR
Cloud Levels
  • Overcast at 11,000' AGL
Temperature
11°C / 52°F
Dewpoint
C / 43°F
Humidity
72%
Altimeter
30.32" Hg
Pressure
1026.72 hPa
Previous

52 mins ago

KO69 232015Z AUTO VRB03KT 10SM OVC110 11/05 A3034 RMK A01
Observed
Feb-23 @ 20:15 UTC
Wind
  • Variable at 3 KTS
Visibility
10 SM
Flight Rules
VFR
Cloud Levels
  • Overcast at 11,000' AGL
Temperature
11°C / 52°F
Dewpoint
C / 41°F
Humidity
67%
Altimeter
30.34" Hg
Pressure
1027.42 hPa
Previous

1 hour ago

KO69 231955Z AUTO 00000KT 10SM BKN100 OVC120 10/05 A3034 RMK A01
Observed
Feb-23 @ 19:55 UTC
Visibility
10 SM
Flight Rules
VFR
Cloud Levels
  • Broken at 10,000' AGL
  • Overcast at 12,000' AGL
Temperature
10°C / 50°F
Dewpoint
C / 41°F
Humidity
71%
Altimeter
30.34" Hg
Pressure
1027.42 hPa